Time;durP1;ratioP1;P1;durP2;ratioP2;P2;SDS_P1;SDS_P2;PMS_P1;PMS_P2;Temp;Humidity;BMP_temperature;BMP_pressure;BME280_temperature;BME280_humidity;BME280_pressure;Samples;Min_cycle;Max_cycle;Signal;HPM_P1;HPM_P2
2021/05/27 00:01:25;;;;;;;3.90;2.05;;;19.50;41.70;;;;;;5013149;28;20049;-69
2021/05/27 00:03:51;;;;;;;7.13;2.13;;;19.50;41.70;;;;;;5008599;28;20045;-69
2021/05/27 00:06:16;;;;;;;6.93;2.10;;;19.50;42.20;;;;;;5004167;28;20042;-69
2021/05/27 00:08:42;;;;;;;5.25;1.92;;;19.40;42.00;;;;;;4999609;28;20047;-69
2021/05/27 00:11:08;;;;;;;3.65;1.95;;;19.50;42.20;;;;;;5014812;28;20052;-68
2021/05/27 00:13:33;;;;;;;4.15;2.10;;;19.30;41.60;;;;;;5020729;28;20042;-66
2021/05/27 00:15:59;;;;;;;5.50;2.00;;;19.40;42.00;;;;;;5004976;28;20083;-68
2021/05/27 00:18:25;;;;;;;2.78;1.40;;;19.40;41.80;;;;;;5006011;28;20045;-68
2021/05/27 00:20:51;;;;;;;5.65;2.55;;;19.30;41.70;;;;;;4999614;28;20033;-68
2021/05/27 00:23:16;;;;;;;8.20;2.28;;;19.30;42.20;;;;;;5005750;28;20125;-68
2021/05/27 00:25:42;;;;;;;5.78;1.80;;;19.30;42.10;;;;;;5006412;28;20095;-68
2021/05/27 00:28:08;;;;;;;4.88;2.05;;;19.20;42.20;;;;;;5004453;28;20100;-68
2021/05/27 00:30:33;;;;;;;6.85;1.88;;;19.20;42.60;;;;;;4995706;28;20128;-67
2021/05/27 00:32:59;;;;;;;6.82;2.15;;;19.10;42.50;;;;;;5021258;28;20045;-68
2021/05/27 00:35:25;;;;;;;4.65;1.45;;;19.20;42.10;;;;;;5020576;28;20049;-67
2021/05/27 00:37:50;;;;;;;9.52;2.15;;;19.20;41.50;;;;;;5019135;28;20064;-68
2021/05/27 00:40:17;;;;;;;3.70;2.03;;;19.20;41.30;;;;;;5021464;28;20049;-68
2021/05/27 00:42:44;;;;;;;7.32;1.95;;;19.20;41.40;;;;;;5021677;28;20061;-68
2021/05/27 00:45:17;;;;;;;7.07;1.30;;;19.20;41.50;;;;;;5021001;28;20052;-68
2021/05/27 00:47:44;;;;;;;5.57;1.80;;;19.20;42.00;;;;;;4993969;28;20886;-68
2021/05/27 00:50:22;;;;;;;5.28;2.08;;;19.10;41.70;;;;;;5013633;28;20038;-67
2021/05/27 00:52:50;;;;;;;3.25;1.75;;;19.10;41.80;;;;;;5011032;28;20209;-68
2021/05/27 00:55:18;;;;;;;2.60;1.55;;;19.10;41.90;;;;;;5011893;28;20037;-67
2021/05/27 00:57:43;;;;;;;3.72;1.27;;;19.00;41.70;;;;;;4998869;28;20077;-67
2021/05/27 01:00:13;;;;;;;6.22;1.67;;;19.00;41.90;;;;;;5007854;28;20104;-68
2021/05/27 01:02:39;;;;;;;9.48;1.80;;;19.10;41.90;;;;;;5006661;28;20044;-68
2021/05/27 01:05:08;;;;;;;6.97;1.92;;;19.00;41.80;;;;;;4997630;28;20034;-67
2021/05/27 01:07:34;;;;;;;3.50;1.83;;;19.00;41.90;;;;;;5007071;28;20072;-64
2021/05/27 01:09:59;;;;;;;5.82;1.58;;;18.90;41.80;;;;;;5015241;28;20084;-68
2021/05/27 01:12:25;;;;;;;4.20;1.90;;;18.90;41.80;;;;;;5021089;28;20419;-68
2021/05/27 01:17:36;;;;;;;;;;;18.80;42.20;;;;;;5011103;28;20402;-67
2021/05/27 01:20:08;;;;;;;6.03;2.17;;;18.70;42.10;;;;;;5007954;28;19917;-68
2021/05/27 01:22:34;;;;;;;4.60;2.08;;;18.80;42.20;;;;;;5019554;28;20033;-67
2021/05/27 01:24:59;;;;;;;6.10;1.55;;;18.80;42.40;;;;;;5006159;28;20048;-68
2021/05/27 01:27:25;;;;;;;4.35;1.50;;;18.80;42.40;;;;;;5021359;28;20041;-68
2021/05/27 01:29:52;;;;;;;3.03;1.60;;;18.80;42.60;;;;;;5019371;28;20038;-67
2021/05/27 01:32:19;;;;;;;9.40;1.60;;;18.70;42.80;;;;;;5003697;28;20499;-68
2021/05/27 01:34:45;;;;;;;4.68;2.00;;;18.70;42.70;;;;;;5007565;28;20144;-68
2021/05/27 01:37:11;;;;;;;4.85;1.92;;;18.70;42.80;;;;;;5022940;28;20434;-67
2021/05/27 01:39:37;;;;;;;7.22;2.15;;;18.70;42.80;;;;;;5016861;28;20042;-68
2021/05/27 01:42:03;;;;;;;5.32;1.77;;;18.70;43.00;;;;;;5024187;28;20132;-68
2021/05/27 01:44:29;;;;;;;3.58;1.67;;;18.60;43.10;;;;;;5011782;28;20033;-68
2021/05/27 01:46:55;;;;;;;4.45;1.70;;;18.60;43.00;;;;;;5005278;28;20038;-69
2021/05/27 01:49:20;;;;;;;4.13;1.70;;;18.60;43.00;;;;;;4993042;28;20046;-68
2021/05/27 01:51:50;;;;;;;4.45;1.65;;;18.60;43.50;;;;;;5010206;28;20418;-68
2021/05/27 01:54:17;;;;;;;6.72;1.92;;;18.60;43.90;;;;;;5021761;28;20045;-68
2021/05/27 01:56:44;;;;;;;6.22;1.60;;;18.50;43.80;;;;;;5014620;28;20056;-68
2021/05/27 01:59:10;;;;;;;4.28;1.60;;;18.40;43.60;;;;;;5028069;28;20033;-68
2021/05/27 02:01:36;;;;;;;4.25;1.63;;;18.50;43.80;;;;;;5019774;28;20084;-70
2021/05/27 02:07:23;;;;;;;6.32;1.58;;;18.60;44.50;;;;;;4973419;28;20049;-69
2021/05/27 02:09:49;;;;;;;3.42;1.50;;;18.50;43.70;;;;;;5006147;28;20042;-69
2021/05/27 02:12:14;;;;;;;2.75;1.40;;;18.40;43.80;;;;;;5023323;28;20042;-69
2021/05/27 02:14:40;;;;;;;8.20;2.17;;;18.50;43.90;;;;;;5028405;28;20128;-70
2021/05/27 02:17:06;;;;;;;4.13;2.15;;;18.40;44.30;;;;;;5030291;28;20406;-69
2021/05/27 02:19:32;;;;;;;5.70;1.73;;;18.30;44.10;;;;;;5018481;28;20052;-69
2021/05/27 02:21:57;;;;;;;4.30;1.48;;;18.40;44.10;;;;;;5004767;28;20446;-69
2021/05/27 02:24:23;;;;;;;3.33;1.88;;;18.40;44.00;;;;;;5007101;28;20037;-69
2021/05/27 02:26:49;;;;;;;4.35;1.42;;;18.40;44.40;;;;;;5021240;28;20038;-69
2021/05/27 02:29:14;;;;;;;2.40;1.23;;;18.40;44.10;;;;;;5011868;28;20042;-69
2021/05/27 02:31:40;;;;;;;2.78;0.95;;;18.30;44.10;;;;;;5023599;28;20045;-68
2021/05/27 02:34:06;;;;;;;4.65;1.60;;;18.30;44.40;;;;;;5022205;28;20091;-69
2021/05/27 02:36:32;;;;;;;4.82;1.70;;;18.30;44.40;;;;;;5021632;28;20049;-69
2021/05/27 02:38:58;;;;;;;5.45;1.25;;;18.30;44.70;;;;;;5028503;28;20051;-69
2021/05/27 02:41:24;;;;;;;3.78;1.27;;;18.20;44.20;;;;;;5023359;28;20049;-68
2021/05/27 02:43:50;;;;;;;5.50;1.17;;;18.20;44.50;;;;;;5027712;28;20124;-69
2021/05/27 02:46:17;;;;;;;3.63;1.33;;;18.30;44.60;;;;;;5026638;28;20034;-68
2021/05/27 02:48:42;;;;;;;4.93;2.42;;;18.20;44.50;;;;;;5016135;28;20034;-69
2021/05/27 02:51:08;;;;;;;4.70;2.28;;;18.20;44.60;;;;;;5025415;28;20127;-69
2021/05/27 02:53:34;;;;;;;3.15;1.10;;;18.10;45.00;;;;;;5007673;28;20518;-69
2021/05/27 02:56:00;;;;;;;5.00;1.30;;;18.10;45.10;;;;;;5004184;28;20498;-69
2021/05/27 02:58:26;;;;;;;4.82;1.30;;;18.00;45.10;;;;;;5006284;28;20058;-68
2021/05/27 03:00:52;;;;;;;3.35;1.13;;;18.10;45.00;;;;;;5012319;28;20053;-69
2021/05/27 03:03:20;;;;;;;6.78;1.02;;;18.10;45.10;;;;;;5007463;28;20407;-69
2021/05/27 03:05:47;;;;;;;3.25;1.25;;;18.10;45.50;;;;;;5013000;28;20046;-69
2021/05/27 03:08:13;;;;;;;5.90;1.58;;;17.90;45.80;;;;;;5026962;28;20048;-69
2021/05/27 03:10:39;;;;;;;3.20;1.30;;;18.00;45.90;;;;;;5018997;28;20042;-69
2021/05/27 03:13:05;;;;;;;3.63;1.15;;;18.00;45.90;;;;;;5017231;28;20497;-67
2021/05/27 03:15:30;;;;;;;6.38;1.70;;;17.90;45.80;;;;;;5009932;28;20096;-69
2021/05/27 03:18:04;;;;;;;5.13;1.70;;;17.90;45.90;;;;;;5013622;28;20060;-69
2021/05/27 03:20:30;;;;;;;3.93;1.70;;;17.90;45.90;;;;;;5013672;28;20069;-69
2021/05/27 03:22:56;;;;;;;6.32;1.67;;;18.00;46.50;;;;;;5005131;28;20758;-69
2021/05/27 03:25:22;;;;;;;6.20;1.80;;;18.00;45.90;;;;;;5019948;28;20040;-69
2021/05/27 03:27:48;;;;;;;8.68;1.60;;;17.90;46.10;;;;;;5024093;28;20041;-69
2021/05/27 03:30:14;;;;;;;2.58;1.40;;;17.90;46.50;;;;;;5006450;28;20069;-68
2021/05/27 03:32:40;;;;;;;4.75;1.38;;;17.90;46.20;;;;;;5003981;28;20473;-69
2021/05/27 03:35:10;;;;;;;8.00;1.40;;;17.90;46.30;;;;;;5014290;28;20069;-70
2021/05/27 03:37:35;;;;;;;4.82;1.60;;;18.00;46.00;;;;;;5014222;28;20141;-69
2021/05/27 03:40:14;;;;;;;3.85;1.55;;;18.00;46.10;;;;;;5024960;28;20045;-69
2021/05/27 03:42:49;;;;;;;6.05;1.33;;;17.80;46.50;;;;;;4997509;28;20488;-69
2021/05/27 03:45:20;;;;;;;5.22;1.63;;;17.90;46.40;;;;;;5002392;28;20039;-69
2021/05/27 03:47:47;;;;;;;6.07;1.40;;;17.80;46.60;;;;;;5004502;28;20049;-69
2021/05/27 03:50:15;;;;;;;5.15;1.60;;;17.90;46.50;;;;;;5017048;28;20033;-69
2021/05/27 03:52:41;;;;;;;6.60;1.73;;;17.80;46.80;;;;;;5022620;28;20046;-68
2021/05/27 03:55:11;;;;;;;4.90;1.60;;;17.80;46.80;;;;;;5020261;28;20495;-69
2021/05/27 03:57:37;;;;;;;4.38;1.27;;;17.80;48.20;;;;;;5020529;28;20120;-68
2021/05/27 04:02:51;;;;;;;3.47;1.38;;;17.80;48.60;;;;;;4998652;28;20048;-69
2021/05/27 04:08:03;;;;;;;5.85;1.50;;;17.70;51.50;;;;;;5023490;28;20037;-69
2021/05/27 04:10:29;;;;;;;5.75;1.63;;;17.70;48.00;;;;;;5001549;28;20479;-69
2021/05/27 04:12:54;;;;;;;6.35;2.10;;;17.80;50.60;;;;;;5039395;28;20041;-70
2021/05/27 04:15:27;;;;;;;5.90;1.88;;;17.80;50.90;;;;;;5021921;28;20042;-69
2021/05/27 04:18:12;;;;;;;3.25;1.58;;;17.80;48.90;;;;;;5006161;28;20099;-69
2021/05/27 04:20:45;;;;;;;4.25;1.60;;;17.80;49.80;;;;;;5017222;28;20060;-69
2021/05/27 04:23:12;;;;;;;5.07;1.38;;;17.80;49.00;;;;;;5000733;28;20034;-69
2021/05/27 04:25:39;;;;;;;4.20;1.73;;;17.80;47.80;;;;;;5007137;28;20420;-69
2021/05/27 04:28:06;;;;;;;5.72;2.08;;;17.90;47.80;;;;;;5010496;28;20050;-69
2021/05/27 04:31:07;;;;;;;9.55;1.92;;;17.90;47.60;;;;;;4997808;28;20034;-69
2021/05/27 04:33:18;;;;;;;7.30;2.03;;;17.90;47.50;;;;;;5003952;28;20053;-69
2021/05/27 04:35:44;;;;;;;7.97;1.85;;;17.90;47.60;;;;;;5002207;28;20091;-68
2021/05/27 04:38:12;;;;;;;4.38;1.90;;;18.00;47.70;;;;;;5016486;28;20041;-67
2021/05/27 04:40:43;;;;;;;6.55;2.45;;;17.90;48.20;;;;;;5017673;28;20061;-68
2021/05/27 04:43:08;;;;;;;5.32;1.88;;;17.90;47.70;;;;;;5039843;28;20145;-67
2021/05/27 04:45:34;;;;;;;6.25;1.98;;;18.00;48.10;;;;;;5006682;28;20045;-68
2021/05/27 04:48:03;;;;;;;5.10;1.58;;;18.00;48.30;;;;;;5011833;28;20044;-68
2021/05/27 04:50:29;;;;;;;5.50;2.38;;;18.00;47.90;;;;;;5010443;28;20046;-69
2021/05/27 04:52:55;;;;;;;6.53;2.05;;;18.00;47.90;;;;;;5002297;28;20415;-69
2021/05/27 04:55:21;;;;;;;4.57;1.92;;;18.10;48.00;;;;;;5012224;28;20037;-68
2021/05/27 04:57:46;;;;;;;9.25;2.08;;;18.00;48.40;;;;;;5006743;28;20419;-69
2021/05/27 05:00:18;;;;;;;6.32;2.10;;;18.00;48.30;;;;;;5020845;28;20033;-70
2021/05/27 05:02:44;;;;;;;8.18;2.50;;;18.00;48.50;;;;;;5014531;28;20034;-70
2021/05/27 05:05:11;;;;;;;8.75;2.50;;;18.00;48.40;;;;;;5022627;28;20042;-69
2021/05/27 05:07:41;;;;;;;5.25;2.30;;;18.10;48.80;;;;;;5020741;28;20053;-69
2021/05/27 05:10:09;;;;;;;4.13;2.20;;;18.20;48.70;;;;;;5009221;28;20403;-69
2021/05/27 05:12:44;;;;;;;5.00;2.00;;;18.20;48.90;;;;;;5022286;28;20041;-70
2021/05/27 05:15:21;;;;;;;6.22;1.80;;;18.20;49.20;;;;;;4974411;28;20135;-69
2021/05/27 05:17:52;;;;;;;6.97;2.90;;;18.20;49.00;;;;;;5018958;28;20056;-69
2021/05/27 05:20:20;;;;;;;8.55;2.75;;;18.10;49.20;;;;;;5015339;28;20097;-69
2021/05/27 05:22:46;;;;;;;6.18;2.47;;;18.30;49.00;;;;;;5003607;28;20574;-68
2021/05/27 05:25:12;;;;;;;8.00;2.38;;;18.30;48.80;;;;;;5013410;28;20044;-69
2021/05/27 05:27:38;;;;;;;7.30;3.05;;;18.30;48.70;;;;;;5011845;28;20042;-69
2021/05/27 05:30:05;;;;;;;5.22;2.40;;;18.30;48.70;;;;;;5018265;28;20037;-69
2021/05/27 05:32:31;;;;;;;7.90;2.60;;;18.40;48.70;;;;;;5011078;28;20124;-70
2021/05/27 05:34:59;;;;;;;8.60;3.33;;;18.40;49.00;;;;;;5005642;28;20065;-70
2021/05/27 05:37:25;;;;;;;5.50;2.47;;;18.50;49.00;;;;;;5011803;28;20046;-70
2021/05/27 05:39:50;;;;;;;9.23;2.85;;;18.50;48.80;;;;;;5009584;28;20530;-69
2021/05/27 05:42:16;;;;;;;10.75;3.67;;;18.40;48.60;;;;;;5037575;28;20046;-69
2021/05/27 05:44:42;;;;;;;7.50;3.08;;;18.40;48.90;;;;;;5026236;28;20037;-69
2021/05/27 05:47:08;;;;;;;7.03;3.17;;;18.40;49.40;;;;;;5034225;28;20087;-69
2021/05/27 05:49:33;;;;;;;7.97;3.25;;;18.40;49.00;;;;;;5013945;28;20462;-69
2021/05/27 05:51:59;;;;;;;8.60;3.20;;;18.50;49.00;;;;;;5021659;28;20034;-69
2021/05/27 05:54:25;;;;;;;9.50;3.33;;;18.50;49.00;;;;;;5023023;28;20049;-69
2021/05/27 05:56:50;;;;;;;10.27;3.35;;;18.50;49.30;;;;;;5017311;28;20053;-69
2021/05/27 05:59:16;;;;;;;7.63;3.15;;;18.50;49.30;;;;;;5007135;28;20181;-69
2021/05/27 06:01:42;;;;;;;7.25;3.63;;;18.50;49.50;;;;;;5014045;28;20091;-69
2021/05/27 06:04:07;;;;;;;9.10;2.88;;;18.50;49.40;;;;;;5000242;28;20037;-69
2021/05/27 06:06:33;;;;;;;5.75;3.00;;;18.60;49.20;;;;;;5021479;28;20038;-69
2021/05/27 06:08:59;;;;;;;6.75;2.78;;;18.60;49.50;;;;;;5004725;28;20052;-69
2021/05/27 06:11:24;;;;;;;7.72;3.40;;;18.60;49.10;;;;;;5030621;28;20235;-69
2021/05/27 06:13:50;;;;;;;6.57;3.35;;;18.60;49.50;;;;;;5025748;28;20041;-69
2021/05/27 06:16:16;;;;;;;8.80;3.40;;;18.60;49.30;;;;;;5000447;28;20124;-69
2021/05/27 06:18:41;;;;;;;11.23;5.13;;;18.60;49.70;;;;;;5009629;28;20411;-69
2021/05/27 06:21:07;;;;;;;10.25;5.47;;;18.60;49.50;;;;;;5012148;28;20039;-70
2021/05/27 06:23:33;;;;;;;11.95;6.45;;;18.60;49.40;;;;;;5025664;28;20045;-70
2021/05/27 06:25:59;;;;;;;17.00;6.65;;;18.60;49.80;;;;;;5019295;28;20042;-70
2021/05/27 06:28:24;;;;;;;16.20;7.13;;;18.60;49.60;;;;;;5014808;28;20836;-70
2021/05/27 06:30:50;;;;;;;17.90;7.72;;;18.60;50.10;;;;;;5014822;28;20038;-69
2021/05/27 06:33:16;;;;;;;13.00;6.82;;;18.70;49.90;;;;;;5002585;28;20416;-69
2021/05/27 06:35:41;;;;;;;12.65;8.00;;;18.50;50.00;;;;;;5007066;28;20041;-71
2021/05/27 06:38:09;;;;;;;10.63;6.95;;;18.60;50.30;;;;;;5027358;28;20053;-69
2021/05/27 06:40:34;;;;;;;25.17;15.23;;;18.60;50.30;;;;;;5021205;28;20409;-70
2021/05/27 06:43:00;;;;;;;92.40;69.32;;;18.70;50.30;;;;;;5029745;28;20049;-70
2021/05/27 06:45:26;;;;;;;19.83;9.15;;;18.70;50.40;;;;;;5022945;28;20074;-69
2021/05/27 06:47:52;;;;;;;10.48;5.18;;;18.70;50.50;;;;;;5008374;28;20064;-69
2021/05/27 06:50:33;;;;;;;12.10;5.15;;;18.80;50.40;;;;;;5025796;28;20083;-69
2021/05/27 06:53:00;;;;;;;9.82;5.80;;;18.90;50.70;;;;;;5013767;28;20380;-67
2021/05/27 06:55:26;;;;;;;11.43;5.18;;;18.90;50.00;;;;;;5006250;28;20116;-68
2021/05/27 06:57:52;;;;;;;7.90;3.13;;;18.80;49.90;;;;;;5012406;28;20142;-67
2021/05/27 07:00:20;;;;;;;10.00;3.47;;;18.90;50.40;;;;;;5032844;28;20116;-67
2021/05/27 07:02:47;;;;;;;7.25;2.95;;;18.90;49.80;;;;;;5011013;28;20042;-68
2021/05/27 07:05:13;;;;;;;8.40;3.10;;;18.90;49.80;;;;;;5011690;28;20061;-68
2021/05/27 07:07:39;;;;;;;11.27;3.45;;;18.90;49.40;;;;;;5014071;28;20030;-68
2021/05/27 07:10:05;;;;;;;8.60;3.60;;;18.90;49.40;;;;;;5012168;28;20095;-69
2021/05/27 07:12:32;;;;;;;12.55;3.58;;;18.90;49.30;;;;;;5030060;28;20035;-70
2021/05/27 07:14:59;;;;;;;7.03;3.30;;;19.00;49.80;;;;;;5017916;28;20045;-68
2021/05/27 07:17:24;;;;;;;9.57;4.03;;;19.00;49.20;;;;;;5017138;28;20049;-69
2021/05/27 07:19:52;;;;;;;10.80;3.92;;;19.10;49.30;;;;;;5015961;28;20333;-70
2021/05/27 07:22:18;;;;;;;10.15;4.03;;;19.10;49.30;;;;;;5014777;28;20041;-69
2021/05/27 07:24:45;;;;;;;10.77;4.30;;;19.20;49.30;;;;;;5019842;28;20085;-69
2021/05/27 07:27:12;;;;;;;12.38;3.58;;;19.20;49.00;;;;;;5004086;28;20041;-70
2021/05/27 07:29:37;;;;;;;9.23;3.53;;;19.30;49.30;;;;;;5003234;28;20049;-69
2021/05/27 07:32:05;;;;;;;5.32;2.70;;;19.30;49.30;;;;;;5025568;28;20042;-70
2021/05/27 07:34:31;;;;;;;8.05;2.90;;;19.30;48.70;;;;;;5001936;28;20061;-69
2021/05/27 07:36:57;;;;;;;10.00;3.47;;;19.40;48.70;;;;;;5016171;28;20193;-69
2021/05/27 07:39:23;;;;;;;11.27;2.90;;;19.40;48.90;;;;;;5017799;28;20149;-70
2021/05/27 07:41:48;;;;;;;12.43;3.10;;;19.30;48.10;;;;;;5012623;28;20034;-70
2021/05/27 07:44:14;;;;;;;7.25;2.85;;;19.40;48.30;;;;;;5008039;28;20054;-69
2021/05/27 07:46:40;;;;;;;9.15;5.43;;;19.40;48.00;;;;;;5016817;28;20076;-69
2021/05/27 07:49:05;;;;;;;10.13;3.65;;;19.50;47.90;;;;;;5020581;28;20045;-66
2021/05/27 07:51:31;;;;;;;10.15;3.47;;;19.60;48.10;;;;;;5010176;28;20072;-69
2021/05/27 07:53:56;;;;;;;13.43;3.15;;;19.60;48.20;;;;;;5010778;28;20125;-69
2021/05/27 07:56:22;;;;;;;9.63;3.35;;;19.60;48.10;;;;;;5016498;28;20504;-68
2021/05/27 07:58:48;;;;;;;8.32;2.85;;;19.60;48.40;;;;;;5000796;28;20144;-69
2021/05/27 08:01:15;;;;;;;8.55;3.20;;;19.70;48.00;;;;;;5019430;28;20476;-69
2021/05/27 08:03:41;;;;;;;6.88;2.78;;;19.70;47.70;;;;;;5011877;28;20047;-69
2021/05/27 08:06:06;;;;;;;8.65;2.85;;;19.70;47.50;;;;;;5016672;28;20361;-68
2021/05/27 08:08:32;;;;;;;6.82;2.53;;;19.80;46.90;;;;;;5008161;28;20026;-69
2021/05/27 08:10:58;;;;;;;7.00;2.90;;;19.80;46.50;;;;;;5015600;28;20037;-69
2021/05/27 08:13:23;;;;;;;8.82;2.90;;;19.90;46.30;;;;;;5017657;28;20050;-69
2021/05/27 08:15:49;;;;;;;10.00;3.58;;;19.90;46.70;;;;;;5003174;28;20038;-69
2021/05/27 08:18:15;;;;;;;5.30;2.72;;;19.90;47.00;;;;;;5023837;28;20052;-69
2021/05/27 08:20:40;;;;;;;7.43;3.20;;;20.00;47.00;;;;;;5004496;28;20388;-69
2021/05/27 08:23:06;;;;;;;7.90;2.65;;;20.00;47.20;;;;;;5021993;28;20033;-69
2021/05/27 08:25:32;;;;;;;5.57;2.55;;;20.10;45.40;;;;;;5027142;28;20042;-69
2021/05/27 08:27:58;;;;;;;9.45;2.33;;;20.10;46.20;;;;;;5021599;28;20044;-71
2021/05/27 08:30:24;;;;;;;12.98;2.97;;;20.10;45.90;;;;;;5001884;28;20057;-69
2021/05/27 08:32:49;;;;;;;8.15;2.83;;;20.10;46.40;;;;;;4998299;28;20065;-69
2021/05/27 08:35:15;;;;;;;5.07;2.35;;;20.20;45.90;;;;;;5001136;28;20047;-69
2021/05/27 08:37:41;;;;;;;8.02;2.45;;;20.30;44.40;;;;;;5008252;28;20530;-69
2021/05/27 08:40:07;;;;;;;8.20;2.25;;;20.30;44.20;;;;;;5015803;28;20037;-69
2021/05/27 08:42:35;;;;;;;5.82;2.47;;;20.30;44.50;;;;;;5025664;28;20164;-70
2021/05/27 08:45:04;;;;;;;9.30;2.83;;;20.40;44.40;;;;;;5004292;28;20436;-70
2021/05/27 08:47:29;;;;;;;8.80;2.80;;;20.40;44.60;;;;;;5012735;28;20053;-70
2021/05/27 08:49:55;;;;;;;9.45;3.15;;;20.40;44.40;;;;;;5019767;28;20046;-70
2021/05/27 08:52:21;;;;;;;2.97;1.90;;;20.50;45.20;;;;;;5009672;28;20069;-69
2021/05/27 08:54:47;;;;;;;4.28;1.13;;;20.50;43.10;;;;;;5023244;28;20071;-71
2021/05/27 08:57:12;;;;;;;5.30;2.40;;;20.60;43.00;;;;;;5017648;28;20046;-69
2021/05/27 08:59:38;;;;;;;7.43;2.47;;;20.70;51.50;;;;;;5019632;28;20046;-69
2021/05/27 09:02:07;;;;;;;7.82;2.75;;;20.70;45.20;;;;;;5011000;28;20040;-70
2021/05/27 09:04:33;;;;;;;5.07;1.60;;;20.60;44.30;;;;;;5023830;28;20037;-63
2021/05/27 09:07:00;;;;;;;8.00;2.40;;;20.70;42.80;;;;;;5017661;28;20056;-62
2021/05/27 09:09:56;;;;;;;7.40;2.22;;;20.80;42.50;;;;;;5000822;28;20078;-63
2021/05/27 09:12:35;;;;;;;8.20;2.45;;;20.80;41.20;;;;;;4990011;28;20049;-63
2021/05/27 09:15:04;;;;;;;4.57;1.75;;;20.80;42.30;;;;;;5013782;28;20065;-67
2021/05/27 09:17:51;;;;;;;7.38;3.42;;;20.90;42.20;;;;;;5001816;28;20045;-66
2021/05/27 09:20:22;;;;;;;25.48;13.00;;;21.00;41.00;;;;;;5000467;28;20034;-66
2021/05/27 09:23:15;;;;;;;6.97;2.95;;;20.90;41.20;;;;;;5009172;28;20042;-65
2021/05/27 09:25:43;;;;;;;5.47;2.13;;;21.00;39.20;;;;;;5011846;28;21027;-63
2021/05/27 09:28:10;;;;;;;4.75;1.98;;;21.00;40.10;;;;;;5003311;28;20052;-64
2021/05/27 09:30:48;;;;;;;5.03;1.80;;;21.10;39.50;;;;;;5021081;28;20049;-64
2021/05/27 09:33:15;;;;;;;2.70;1.52;;;21.30;47.60;;;;;;5009571;28;20042;-63
2021/05/27 09:35:41;;;;;;;21.13;15.40;;;21.20;37.70;;;;;;5026618;28;20095;-64
2021/05/27 09:38:07;;;;;;;10.52;5.93;;;21.20;39.30;;;;;;5019128;28;20049;-63
2021/05/27 09:40:36;;;;;;;6.65;2.28;;;21.30;39.80;;;;;;5024453;28;20052;-64
2021/05/27 09:43:03;;;;;;;5.82;2.00;;;21.40;38.90;;;;;;5011626;28;20041;-64
2021/05/27 09:45:31;;;;;;;5.70;2.28;;;21.50;38.80;;;;;;5023865;28;20037;-64
2021/05/27 09:47:57;;;;;;;6.88;2.15;;;21.60;39.00;;;;;;5012673;28;20447;-64
2021/05/27 09:50:31;;;;;;;6.93;1.67;;;21.60;38.70;;;;;;5020754;28;20042;-64
2021/05/27 09:53:17;;;;;;;5.10;1.85;;;21.70;39.20;;;;;;5012405;28;20045;-64
2021/05/27 09:55:45;;;;;;;3.95;1.90;;;21.80;38.00;;;;;;4987406;28;20046;-64
2021/05/27 09:58:13;;;;;;;7.10;2.08;;;21.90;38.10;;;;;;5009597;28;20050;-63
2021/05/27 10:00:41;;;;;;;7.82;2.13;;;22.00;37.90;;;;;;5020183;28;20372;-63
2021/05/27 10:03:36;;;;;;;4.75;1.95;;;22.10;36.00;;;;;;5022992;28;20483;-63
2021/05/27 10:06:09;;;;;;;;;;;22.10;34.20;;;;;;5020336;28;20045;-64
2021/05/27 10:08:51;;;;;;;4.38;1.67;;;22.20;33.80;;;;;;5022322;28;19958;-64
2021/05/27 10:11:18;;;;;;;5.88;2.20;;;22.20;34.50;;;;;;4994739;28;20227;-65
2021/05/27 10:13:44;;;;;;;6.32;2.22;;;22.30;35.30;;;;;;5011454;28;20099;-65
2021/05/27 10:16:15;;;;;;;4.82;1.77;;;22.30;36.20;;;;;;5021435;28;20048;-63
2021/05/27 10:18:42;;;;;;;5.70;2.30;;;22.40;35.40;;;;;;5007774;28;20054;-64
2021/05/27 10:21:08;;;;;;;11.00;2.33;;;22.50;35.20;;;;;;5028744;28;20038;-62
2021/05/27 10:23:34;;;;;;;6.35;2.42;;;22.60;34.70;;;;;;5007280;28;20054;-64
2021/05/27 10:26:00;;;;;;;5.07;2.53;;;22.50;35.80;;;;;;5016298;28;20139;-63
2021/05/27 10:28:27;;;;;;;20.42;8.38;;;22.50;36.50;;;;;;5016694;28;20049;-62
2021/05/27 10:30:53;;;;;;;10.45;2.35;;;22.80;34.50;;;;;;5014761;28;20045;-66
2021/05/27 10:33:20;;;;;;;7.38;3.30;;;23.10;34.70;;;;;;5002554;28;20043;-66
2021/05/27 10:35:57;;;;;;;3.95;2.17;;;23.30;35.30;;;;;;5013007;28;20524;-67
2021/05/27 10:38:47;;;;;;;6.35;2.55;;;23.40;34.70;;;;;;5025377;28;20394;-65
2021/05/27 10:41:42;;;;;;;3.88;2.03;;;23.40;35.30;;;;;;4987196;28;20374;-63
2021/05/27 10:44:15;;;;;;;15.00;6.50;;;23.50;34.60;;;;;;5019145;28;20069;-71
2021/05/27 10:46:44;;;;;;;5.35;2.58;;;23.60;34.40;;;;;;5006756;28;20038;-70
2021/05/27 10:49:10;;;;;;;9.07;2.88;;;23.80;34.00;;;;;;5007783;28;20034;-67
2021/05/27 10:51:43;;;;;;;7.72;2.83;;;23.80;34.50;;;;;;5010287;28;20121;-68
2021/05/27 10:54:14;;;;;;;6.22;3.00;;;24.10;37.10;;;;;;5014686;28;20087;-68
2021/05/27 10:56:44;;;;;;;5.53;2.30;;;24.20;33.80;;;;;;5018730;28;20148;-67
2021/05/27 10:59:19;;;;;;;4.72;2.22;;;24.40;34.20;;;;;;5021425;28;20046;-67
2021/05/27 11:01:45;;;;;;;6.75;2.65;;;24.50;32.40;;;;;;5018128;28;20044;-69
2021/05/27 11:04:34;;;;;;;7.05;2.80;;;24.80;32.80;;;;;;5015663;28;20034;-68
2021/05/27 11:07:18;;;;;;;8.10;2.53;;;25.40;32.40;;;;;;5013405;28;20112;-68
2021/05/27 11:09:46;;;;;;;4.53;2.58;;;24.10;44.00;;;;;;4989025;28;20045;-68
2021/05/27 11:12:20;;;;;;;7.40;2.70;;;25.90;42.80;;;;;;5003397;28;20115;-65
2021/05/27 11:15:01;;;;;;;4.15;2.10;;;26.90;57.50;;;;;;5012355;28;20037;-66
2021/05/27 11:17:27;;;;;;;5.95;3.00;;;26.50;61.70;;;;;;5013078;28;20053;-67
2021/05/27 11:27:45;;;;;;;4.85;2.33;;;26.20;45.50;;;;;;5010953;28;20038;-66
2021/05/27 11:30:20;;;;;;;6.03;2.63;;;26.20;40.40;;;;;;5023880;28;20062;-66
2021/05/27 11:33:04;;;;;;;8.98;2.63;;;26.10;37.60;;;;;;5025106;28;20048;-67
2021/05/27 11:35:41;;;;;;;5.22;2.47;;;26.00;35.50;;;;;;5006319;28;20433;-67
2021/05/27 11:38:07;;;;;;;6.50;2.20;;;26.00;34.40;;;;;;5019127;28;20049;-66
2021/05/27 11:40:36;;;;;;;6.22;1.95;;;25.80;33.40;;;;;;5028209;28;20041;-67
2021/05/27 11:43:02;;;;;;;5.68;2.35;;;25.90;33.20;;;;;;5015107;28;20052;-67
2021/05/27 11:45:37;;;;;;;5.35;2.03;;;25.90;32.90;;;;;;5010891;28;20120;-67
2021/05/27 11:48:15;;;;;;;5.30;2.55;;;26.00;33.30;;;;;;4998059;28;20117;-67
2021/05/27 11:50:41;;;;;;;6.72;2.78;;;26.30;32.40;;;;;;5010321;28;20042;-65
2021/05/27 11:53:06;;;;;;;6.55;3.55;;;26.40;32.80;;;;;;5012130;28;20048;-64
2021/05/27 11:55:34;;;;;;;3.58;2.53;;;26.60;32.30;;;;;;4990172;28;20034;-66
2021/05/27 11:58:00;;;;;;;7.78;3.88;;;26.70;32.00;;;;;;4998050;28;20133;-67
2021/05/27 12:00:26;;;;;;;10.45;3.72;;;26.60;31.00;;;;;;5006479;28;22074;-67
2021/05/27 12:03:00;;;;;;;9.10;4.85;;;26.70;31.50;;;;;;5021234;28;20045;-67
2021/05/27 12:05:33;;;;;;;11.30;6.10;;;26.50;30.40;;;;;;5020655;28;20049;-66
2021/05/27 12:08:06;;;;;;;11.75;4.50;;;26.30;29.90;;;;;;5021680;28;20033;-66
2021/05/27 12:10:37;;;;;;;7.88;3.50;;;26.60;31.50;;;;;;5009639;28;20033;-66
2021/05/27 12:13:15;;;;;;;7.28;3.28;;;26.70;30.20;;;;;;5024038;28;20033;-66
2021/05/27 12:15:45;;;;;;;3.63;2.80;;;26.90;30.00;;;;;;5018276;28;20088;-65
2021/05/27 12:18:15;;;;;;;9.63;2.72;;;27.20;30.30;;;;;;5016680;28;20104;-65
2021/05/27 12:20:42;;;;;;;6.70;2.40;;;27.60;28.80;;;;;;5011757;28;20183;-66
2021/05/27 12:23:08;;;;;;;5.75;2.47;;;;;;;;;;5002329;28;20048;-66
2021/05/27 12:25:46;;;;;;;5.13;2.03;;;28.30;27.40;;;;;;5001316;28;20041;-66
2021/05/27 12:28:18;;;;;;;6.43;2.60;;;28.40;27.20;;;;;;4988818;28;20167;-66
2021/05/27 12:30:52;;;;;;;5.03;2.10;;;28.40;27.60;;;;;;5002527;28;20061;-66
2021/05/27 12:33:24;;;;;;;4.75;2.08;;;28.50;26.60;;;;;;5000492;28;20045;-66
2021/05/27 12:35:50;;;;;;;6.82;2.45;;;28.90;26.80;;;;;;5008803;28;20487;-66
2021/05/27 12:38:22;;;;;;;4.70;2.75;;;28.90;27.10;;;;;;5013944;28;20099;-68
2021/05/27 12:40:49;;;;;;;2.88;2.20;;;29.10;26.90;;;;;;5018604;28;20171;-65
2021/05/27 12:43:33;;;;;;;4.03;2.00;;;29.20;26.50;;;;;;5014782;28;20041;-66
2021/05/27 12:46:01;;;;;;;5.35;2.30;;;29.40;24.90;;;;;;4995715;28;20045;-66
2021/05/27 12:48:28;;;;;;;4.47;1.52;;;29.50;24.40;;;;;;5014341;28;20379;-67
2021/05/27 12:50:58;;;;;;;4.60;2.08;;;30.10;44.80;;;;;;5019159;28;20479;-67
2021/05/27 12:53:51;;;;;;;5.07;2.40;;;30.90;35.40;;;;;;5005434;28;20038;-68
2021/05/27 12:56:20;;;;;;;7.57;2.50;;;30.80;27.40;;;;;;4981548;28;20415;-67
2021/05/27 12:58:53;;;;;;;3.03;1.83;;;31.00;27.10;;;;;;5011602;28;20543;-67
2021/05/27 13:01:30;;;;;;;3.92;2.33;;;30.20;25.40;;;;;;5012255;28;20034;-67
2021/05/27 13:03:56;;;;;;;4.72;2.45;;;29.40;24.90;;;;;;5008470;28;20057;-67
2021/05/27 13:06:23;;;;;;;4.35;3.35;;;29.00;25.80;;;;;;4991561;28;20092;-66
2021/05/27 13:09:15;;;;;;;4.32;2.10;;;30.00;25.40;;;;;;5005160;28;20038;-67
2021/05/27 13:11:46;;;;;;;4.88;2.00;;;29.90;25.40;;;;;;5010275;28;20080;-66